sensor_id;sensor_type;location;lat;lon;timestamp;P1;durP1;ratioP1;P2;durP2;ratioP2
4268;SDS011;2148;48.554;7.834;2023-09-08T00:01:16;12.20;;;11.30;;
4268;SDS011;2148;48.554;7.834;2023-09-08T00:03:41;12.73;;;11.83;;
4268;SDS011;2148;48.554;7.834;2023-09-08T00:06:07;12.80;;;11.80;;
4268;SDS011;2148;48.554;7.834;2023-09-08T00:08:32;12.67;;;11.57;;
4268;SDS011;2148;48.554;7.834;2023-09-08T00:10:57;12.30;;;11.40;;
4268;SDS011;2148;48.554;7.834;2023-09-08T00:13:22;11.87;;;10.37;;
4268;SDS011;2148;48.554;7.834;2023-09-08T00:15:48;11.90;;;11.10;;
4268;SDS011;2148;48.554;7.834;2023-09-08T00:18:13;11.90;;;10.80;;
4268;SDS011;2148;48.554;7.834;2023-09-08T00:20:38;11.70;;;10.63;;
4268;SDS011;2148;48.554;7.834;2023-09-08T00:23:03;12.23;;;11.23;;
4268;SDS011;2148;48.554;7.834;2023-09-08T00:25:29;11.47;;;10.67;;
4268;SDS011;2148;48.554;7.834;2023-09-08T00:27:54;11.30;;;10.40;;
4268;SDS011;2148;48.554;7.834;2023-09-08T00:30:19;11.90;;;10.17;;
4268;SDS011;2148;48.554;7.834;2023-09-08T00:32:44;11.27;;;10.27;;
4268;SDS011;2148;48.554;7.834;2023-09-08T00:35:11;11.47;;;10.53;;
4268;SDS011;2148;48.554;7.834;2023-09-08T00:37:36;11.07;;;10.17;;
4268;SDS011;2148;48.554;7.834;2023-09-08T00:40:02;12.17;;;11.17;;
4268;SDS011;2148;48.554;7.834;2023-09-08T00:42:27;11.30;;;10.43;;
4268;SDS011;2148;48.554;7.834;2023-09-08T00:44:53;11.23;;;10.33;;
4268;SDS011;2148;48.554;7.834;2023-09-08T00:47:18;11.70;;;10.77;;
4268;SDS011;2148;48.554;7.834;2023-09-08T00:49:43;11.67;;;10.77;;
4268;SDS011;2148;48.554;7.834;2023-09-08T00:52:08;12.83;;;11.57;;
4268;SDS011;2148;48.554;7.834;2023-09-08T00:54:34;11.23;;;10.30;;
4268;SDS011;2148;48.554;7.834;2023-09-08T00:56:59;11.90;;;10.77;;
4268;SDS011;2148;48.554;7.834;2023-09-08T00:59:27;11.80;;;10.73;;
4268;SDS011;2148;48.554;7.834;2023-09-08T01:01:52;12.23;;;11.20;;
4268;SDS011;2148;48.554;7.834;2023-09-08T01:04:18;11.60;;;10.70;;
4268;SDS011;2148;48.554;7.834;2023-09-08T01:06:44;12.40;;;11.43;;
4268;SDS011;2148;48.554;7.834;2023-09-08T01:09:10;11.67;;;10.80;;
4268;SDS011;2148;48.554;7.834;2023-09-08T01:11:36;12.00;;;11.00;;
4268;SDS011;2148;48.554;7.834;2023-09-08T01:14:01;12.53;;;11.53;;
4268;SDS011;2148;48.554;7.834;2023-09-08T01:16:26;12.57;;;11.57;;
4268;SDS011;2148;48.554;7.834;2023-09-08T01:18:51;11.83;;;10.83;;
4268;SDS011;2148;48.554;7.834;2023-09-08T01:23:57;11.77;;;10.87;;
4268;SDS011;2148;48.554;7.834;2023-09-08T01:26:31;12.63;;;11.70;;
4268;SDS011;2148;48.554;7.834;2023-09-08T01:29:01;13.63;;;12.50;;
4268;SDS011;2148;48.554;7.834;2023-09-08T01:31:27;13.90;;;12.23;;
4268;SDS011;2148;48.554;7.834;2023-09-08T01:33:52;13.80;;;12.67;;
4268;SDS011;2148;48.554;7.834;2023-09-08T01:36:18;13.43;;;12.37;;
4268;SDS011;2148;48.554;7.834;2023-09-08T01:38:43;13.50;;;12.50;;
4268;SDS011;2148;48.554;7.834;2023-09-08T01:41:08;13.20;;;12.07;;
4268;SDS011;2148;48.554;7.834;2023-09-08T01:43:34;12.33;;;11.33;;
4268;SDS011;2148;48.554;7.834;2023-09-08T01:45:59;12.13;;;11.20;;
4268;SDS011;2148;48.554;7.834;2023-09-08T01:48:24;11.53;;;10.63;;
4268;SDS011;2148;48.554;7.834;2023-09-08T01:50:50;11.90;;;10.90;;
4268;SDS011;2148;48.554;7.834;2023-09-08T01:53:15;12.30;;;11.30;;
4268;SDS011;2148;48.554;7.834;2023-09-08T01:55:40;12.10;;;11.10;;
4268;SDS011;2148;48.554;7.834;2023-09-08T01:58:05;12.13;;;11.03;;
4268;SDS011;2148;48.554;7.834;2023-09-08T02:00:31;11.60;;;10.57;;
4268;SDS011;2148;48.554;7.834;2023-09-08T02:02:56;12.10;;;10.93;;
4268;SDS011;2148;48.554;7.834;2023-09-08T02:05:21;12.20;;;11.30;;
4268;SDS011;2148;48.554;7.834;2023-09-08T02:07:47;11.83;;;10.93;;
4268;SDS011;2148;48.554;7.834;2023-09-08T02:10:12;11.43;;;10.53;;
4268;SDS011;2148;48.554;7.834;2023-09-08T02:12:37;10.87;;;10.07;;
4268;SDS011;2148;48.554;7.834;2023-09-08T02:15:03;12.53;;;11.63;;
4268;SDS011;2148;48.554;7.834;2023-09-08T02:17:29;12.03;;;11.17;;
4268;SDS011;2148;48.554;7.834;2023-09-08T02:19:55;12.17;;;11.17;;
4268;SDS011;2148;48.554;7.834;2023-09-08T02:22:20;12.67;;;11.67;;
4268;SDS011;2148;48.554;7.834;2023-09-08T02:24:45;12.77;;;11.70;;
4268;SDS011;2148;48.554;7.834;2023-09-08T02:27:10;12.07;;;10.97;;
4268;SDS011;2148;48.554;7.834;2023-09-08T02:29:36;13.57;;;12.37;;
4268;SDS011;2148;48.554;7.834;2023-09-08T02:32:01;12.30;;;11.20;;
4268;SDS011;2148;48.554;7.834;2023-09-08T02:34:26;12.90;;;11.83;;
4268;SDS011;2148;48.554;7.834;2023-09-08T02:36:52;13.03;;;12.03;;
4268;SDS011;2148;48.554;7.834;2023-09-08T02:39:17;12.97;;;11.97;;
4268;SDS011;2148;48.554;7.834;2023-09-08T02:41:42;12.70;;;11.60;;
4268;SDS011;2148;48.554;7.834;2023-09-08T02:44:07;12.97;;;11.83;;
4268;SDS011;2148;48.554;7.834;2023-09-08T02:46:33;12.33;;;11.30;;
4268;SDS011;2148;48.554;7.834;2023-09-08T02:48:58;13.53;;;12.43;;
4268;SDS011;2148;48.554;7.834;2023-09-08T02:51:23;12.27;;;11.27;;
4268;SDS011;2148;48.554;7.834;2023-09-08T02:53:48;12.27;;;11.17;;
4268;SDS011;2148;48.554;7.834;2023-09-08T02:56:14;13.10;;;11.90;;
4268;SDS011;2148;48.554;7.834;2023-09-08T02:58:39;12.63;;;11.63;;
4268;SDS011;2148;48.554;7.834;2023-09-08T03:01:11;13.37;;;12.27;;
4268;SDS011;2148;48.554;7.834;2023-09-08T03:03:40;14.13;;;12.83;;
4268;SDS011;2148;48.554;7.834;2023-09-08T03:06:08;13.17;;;12.13;;
4268;SDS011;2148;48.554;7.834;2023-09-08T03:08:34;14.50;;;13.13;;
4268;SDS011;2148;48.554;7.834;2023-09-08T03:11:02;13.83;;;12.73;;
4268;SDS011;2148;48.554;7.834;2023-09-08T03:13:27;13.87;;;12.50;;
4268;SDS011;2148;48.554;7.834;2023-09-08T03:15:54;12.23;;;11.30;;
4268;SDS011;2148;48.554;7.834;2023-09-08T03:18:19;12.93;;;11.90;;
4268;SDS011;2148;48.554;7.834;2023-09-08T03:20:47;13.17;;;12.00;;
4268;SDS011;2148;48.554;7.834;2023-09-08T03:23:16;13.07;;;11.97;;
4268;SDS011;2148;48.554;7.834;2023-09-08T03:25:42;12.57;;;11.57;;
4268;SDS011;2148;48.554;7.834;2023-09-08T03:28:07;12.50;;;11.60;;
4268;SDS011;2148;48.554;7.834;2023-09-08T03:30:33;11.47;;;10.60;;
4268;SDS011;2148;48.554;7.834;2023-09-08T03:32:58;11.53;;;10.43;;
4268;SDS011;2148;48.554;7.834;2023-09-08T03:35:23;11.27;;;10.37;;
4268;SDS011;2148;48.554;7.834;2023-09-08T03:37:48;12.27;;;11.20;;
4268;SDS011;2148;48.554;7.834;2023-09-08T03:40:14;12.70;;;11.70;;
4268;SDS011;2148;48.554;7.834;2023-09-08T03:42:39;12.33;;;11.43;;
4268;SDS011;2148;48.554;7.834;2023-09-08T03:45:07;12.17;;;11.07;;
4268;SDS011;2148;48.554;7.834;2023-09-08T03:47:32;11.93;;;11.03;;
4268;SDS011;2148;48.554;7.834;2023-09-08T03:49:57;12.23;;;11.23;;
4268;SDS011;2148;48.554;7.834;2023-09-08T03:52:23;12.53;;;11.53;;
4268;SDS011;2148;48.554;7.834;2023-09-08T03:54:48;12.57;;;11.67;;
4268;SDS011;2148;48.554;7.834;2023-09-08T03:57:13;13.50;;;12.33;;
4268;SDS011;2148;48.554;7.834;2023-09-08T03:59:39;13.03;;;11.97;;
4268;SDS011;2148;48.554;7.834;2023-09-08T04:02:04;12.43;;;11.53;;
4268;SDS011;2148;48.554;7.834;2023-09-08T04:04:29;12.17;;;11.27;;
4268;SDS011;2148;48.554;7.834;2023-09-08T04:06:54;12.57;;;11.57;;
4268;SDS011;2148;48.554;7.834;2023-09-08T04:09:20;11.80;;;10.83;;
4268;SDS011;2148;48.554;7.834;2023-09-08T04:11:45;12.40;;;11.40;;
4268;SDS011;2148;48.554;7.834;2023-09-08T04:14:10;12.43;;;11.43;;
4268;SDS011;2148;48.554;7.834;2023-09-08T04:16:35;12.93;;;11.87;;
4268;SDS011;2148;48.554;7.834;2023-09-08T04:19:01;13.03;;;11.97;;
4268;SDS011;2148;48.554;7.834;2023-09-08T04:21:26;14.00;;;12.80;;
4268;SDS011;2148;48.554;7.834;2023-09-08T04:23:51;14.50;;;13.20;;
4268;SDS011;2148;48.554;7.834;2023-09-08T04:26:17;14.00;;;12.83;;
4268;SDS011;2148;48.554;7.834;2023-09-08T04:28:42;14.67;;;13.50;;
4268;SDS011;2148;48.554;7.834;2023-09-08T04:31:07;13.67;;;12.40;;
4268;SDS011;2148;48.554;7.834;2023-09-08T04:33:32;14.07;;;12.97;;
4268;SDS011;2148;48.554;7.834;2023-09-08T04:35:57;12.90;;;11.77;;
4268;SDS011;2148;48.554;7.834;2023-09-08T04:38:23;13.50;;;12.40;;
4268;SDS011;2148;48.554;7.834;2023-09-08T04:40:48;13.47;;;12.27;;
4268;SDS011;2148;48.554;7.834;2023-09-08T04:43:13;14.23;;;12.13;;
4268;SDS011;2148;48.554;7.834;2023-09-08T04:45:39;11.87;;;10.87;;
4268;SDS011;2148;48.554;7.834;2023-09-08T04:48:04;13.47;;;12.27;;
4268;SDS011;2148;48.554;7.834;2023-09-08T04:50:30;11.93;;;11.03;;
4268;SDS011;2148;48.554;7.834;2023-09-08T04:52:55;13.90;;;12.77;;
4268;SDS011;2148;48.554;7.834;2023-09-08T04:55:20;13.10;;;12.10;;
4268;SDS011;2148;48.554;7.834;2023-09-08T04:57:45;12.97;;;11.87;;
4268;SDS011;2148;48.554;7.834;2023-09-08T05:00:11;12.57;;;11.67;;
4268;SDS011;2148;48.554;7.834;2023-09-08T05:02:36;12.67;;;11.57;;
4268;SDS011;2148;48.554;7.834;2023-09-08T05:05:02;12.53;;;11.43;;
4268;SDS011;2148;48.554;7.834;2023-09-08T05:07:27;12.17;;;11.17;;
4268;SDS011;2148;48.554;7.834;2023-09-08T05:09:53;10.67;;;9.87;;
4268;SDS011;2148;48.554;7.834;2023-09-08T05:12:18;11.63;;;10.73;;
4268;SDS011;2148;48.554;7.834;2023-09-08T05:14:43;10.93;;;10.03;;
4268;SDS011;2148;48.554;7.834;2023-09-08T05:17:08;12.70;;;11.70;;
4268;SDS011;2148;48.554;7.834;2023-09-08T05:19:34;12.60;;;11.60;;
4268;SDS011;2148;48.554;7.834;2023-09-08T05:21:59;12.40;;;11.43;;
4268;SDS011;2148;48.554;7.834;2023-09-08T05:24:24;13.03;;;12.03;;
4268;SDS011;2148;48.554;7.834;2023-09-08T05:26:51;13.43;;;12.23;;
4268;SDS011;2148;48.554;7.834;2023-09-08T05:29:16;12.43;;;11.33;;
4268;SDS011;2148;48.554;7.834;2023-09-08T05:31:42;11.87;;;10.83;;
4268;SDS011;2148;48.554;7.834;2023-09-08T05:34:07;12.67;;;11.67;;
4268;SDS011;2148;48.554;7.834;2023-09-08T05:36:32;12.10;;;11.10;;
4268;SDS011;2148;48.554;7.834;2023-09-08T05:39:00;11.70;;;10.90;;
4268;SDS011;2148;48.554;7.834;2023-09-08T05:41:26;11.60;;;10.73;;
4268;SDS011;2148;48.554;7.834;2023-09-08T05:43:52;12.27;;;11.27;;
4268;SDS011;2148;48.554;7.834;2023-09-08T05:46:17;12.47;;;11.47;;
4268;SDS011;2148;48.554;7.834;2023-09-08T05:48:43;11.67;;;10.77;;
4268;SDS011;2148;48.554;7.834;2023-09-08T05:51:08;11.40;;;10.50;;
4268;SDS011;2148;48.554;7.834;2023-09-08T05:53:34;11.73;;;10.70;;
4268;SDS011;2148;48.554;7.834;2023-09-08T05:56:00;10.83;;;10.03;;
4268;SDS011;2148;48.554;7.834;2023-09-08T05:58:26;12.53;;;11.53;;
4268;SDS011;2148;48.554;7.834;2023-09-08T06:00:52;11.87;;;10.97;;
4268;SDS011;2148;48.554;7.834;2023-09-08T06:03:18;11.57;;;10.57;;
4268;SDS011;2148;48.554;7.834;2023-09-08T06:05:44;11.40;;;10.50;;
4268;SDS011;2148;48.554;7.834;2023-09-08T06:08:09;12.47;;;11.47;;
4268;SDS011;2148;48.554;7.834;2023-09-08T06:10:34;12.17;;;11.27;;
4268;SDS011;2148;48.554;7.834;2023-09-08T06:13:00;12.10;;;11.10;;
4268;SDS011;2148;48.554;7.834;2023-09-08T06:15:26;12.60;;;11.60;;
4268;SDS011;2148;48.554;7.834;2023-09-08T06:17:51;12.97;;;11.63;;
4268;SDS011;2148;48.554;7.834;2023-09-08T06:20:17;14.17;;;12.97;;
4268;SDS011;2148;48.554;7.834;2023-09-08T06:22:42;13.67;;;12.57;;
4268;SDS011;2148;48.554;7.834;2023-09-08T06:25:07;14.20;;;13.10;;
4268;SDS011;2148;48.554;7.834;2023-09-08T06:27:32;14.37;;;13.27;;
4268;SDS011;2148;48.554;7.834;2023-09-08T06:29:58;15.97;;;14.47;;
4268;SDS011;2148;48.554;7.834;2023-09-08T06:32:23;15.53;;;14.10;;
4268;SDS011;2148;48.554;7.834;2023-09-08T06:34:48;17.97;;;16.27;;
4268;SDS011;2148;48.554;7.834;2023-09-08T06:37:13;16.20;;;14.50;;
4268;SDS011;2148;48.554;7.834;2023-09-08T06:39:39;18.03;;;16.07;;
4268;SDS011;2148;48.554;7.834;2023-09-08T06:42:04;17.00;;;15.30;;
4268;SDS011;2148;48.554;7.834;2023-09-08T06:44:30;18.33;;;15.70;;
4268;SDS011;2148;48.554;7.834;2023-09-08T06:46:55;16.73;;;15.13;;
4268;SDS011;2148;48.554;7.834;2023-09-08T06:49:20;15.83;;;14.33;;
4268;SDS011;2148;48.554;7.834;2023-09-08T06:51:46;16.60;;;15.10;;
4268;SDS011;2148;48.554;7.834;2023-09-08T06:54:13;17.87;;;16.13;;
4268;SDS011;2148;48.554;7.834;2023-09-08T06:56:38;15.53;;;14.03;;
4268;SDS011;2148;48.554;7.834;2023-09-08T06:59:04;17.00;;;15.27;;
4268;SDS011;2148;48.554;7.834;2023-09-08T07:01:29;16.93;;;15.23;;
4268;SDS011;2148;48.554;7.834;2023-09-08T07:03:54;16.97;;;15.23;;
4268;SDS011;2148;48.554;7.834;2023-09-08T07:06:20;17.30;;;15.60;;
4268;SDS011;2148;48.554;7.834;2023-09-08T07:08:47;19.07;;;17.13;;
4268;SDS011;2148;48.554;7.834;2023-09-08T07:11:14;16.70;;;15.10;;
4268;SDS011;2148;48.554;7.834;2023-09-08T07:13:39;17.07;;;15.27;;
4268;SDS011;2148;48.554;7.834;2023-09-08T07:16:05;17.07;;;15.27;;
4268;SDS011;2148;48.554;7.834;2023-09-08T07:18:30;17.07;;;15.47;;
4268;SDS011;2148;48.554;7.834;2023-09-08T07:20:59;15.93;;;14.53;;
4268;SDS011;2148;48.554;7.834;2023-09-08T07:23:25;16.60;;;14.47;;
4268;SDS011;2148;48.554;7.834;2023-09-08T07:25:51;15.17;;;13.53;;
4268;SDS011;2148;48.554;7.834;2023-09-08T07:28:16;16.30;;;13.27;;
4268;SDS011;2148;48.554;7.834;2023-09-08T07:30:42;21.50;;;15.77;;
4268;SDS011;2148;48.554;7.834;2023-09-08T07:33:08;15.50;;;13.87;;
4268;SDS011;2148;48.554;7.834;2023-09-08T07:35:36;19.17;;;15.30;;
4268;SDS011;2148;48.554;7.834;2023-09-08T07:38:02;17.10;;;15.43;;
4268;SDS011;2148;48.554;7.834;2023-09-08T07:40:27;13.57;;;12.47;;
4268;SDS011;2148;48.554;7.834;2023-09-08T07:42:52;15.53;;;13.93;;
4268;SDS011;2148;48.554;7.834;2023-09-08T07:45:18;15.07;;;13.57;;
4268;SDS011;2148;48.554;7.834;2023-09-08T07:47:43;16.67;;;14.73;;
4268;SDS011;2148;48.554;7.834;2023-09-08T07:50:17;14.73;;;13.20;;
4268;SDS011;2148;48.554;7.834;2023-09-08T07:52:43;14.47;;;12.97;;
4268;SDS011;2148;48.554;7.834;2023-09-08T07:55:08;16.67;;;15.17;;
4268;SDS011;2148;48.554;7.834;2023-09-08T07:57:34;17.17;;;15.43;;
4268;SDS011;2148;48.554;7.834;2023-09-08T07:59:59;18.20;;;16.50;;
4268;SDS011;2148;48.554;7.834;2023-09-08T08:02:24;19.20;;;15.47;;
4268;SDS011;2148;48.554;7.834;2023-09-08T08:04:49;18.60;;;16.17;;
4268;SDS011;2148;48.554;7.834;2023-09-08T08:07:14;15.53;;;13.97;;
4268;SDS011;2148;48.554;7.834;2023-09-08T08:09:40;13.70;;;12.30;;
4268;SDS011;2148;48.554;7.834;2023-09-08T08:12:05;16.27;;;14.70;;
4268;SDS011;2148;48.554;7.834;2023-09-08T08:14:30;15.40;;;13.83;;
4268;SDS011;2148;48.554;7.834;2023-09-08T08:16:55;17.90;;;16.00;;
4268;SDS011;2148;48.554;7.834;2023-09-08T08:19:21;19.93;;;15.33;;
4268;SDS011;2148;48.554;7.834;2023-09-08T08:21:46;17.10;;;15.30;;
4268;SDS011;2148;48.554;7.834;2023-09-08T08:24:11;16.83;;;14.70;;
4268;SDS011;2148;48.554;7.834;2023-09-08T08:26:37;17.73;;;15.87;;
4268;SDS011;2148;48.554;7.834;2023-09-08T08:29:02;16.77;;;15.17;;
4268;SDS011;2148;48.554;7.834;2023-09-08T08:31:28;19.10;;;15.53;;
4268;SDS011;2148;48.554;7.834;2023-09-08T08:33:53;15.63;;;14.23;;
4268;SDS011;2148;48.554;7.834;2023-09-08T08:36:19;17.27;;;15.40;;
4268;SDS011;2148;48.554;7.834;2023-09-08T08:38:44;18.67;;;16.90;;
4268;SDS011;2148;48.554;7.834;2023-09-08T08:41:09;16.67;;;15.27;;
4268;SDS011;2148;48.554;7.834;2023-09-08T08:43:35;15.97;;;14.47;;
4268;SDS011;2148;48.554;7.834;2023-09-08T08:46:02;16.17;;;14.47;;
4268;SDS011;2148;48.554;7.834;2023-09-08T08:48:29;12.10;;;11.03;;
4268;SDS011;2148;48.554;7.834;2023-09-08T08:50:55;12.53;;;11.43;;
4268;SDS011;2148;48.554;7.834;2023-09-08T08:53:22;15.10;;;13.60;;
4268;SDS011;2148;48.554;7.834;2023-09-08T08:55:47;19.03;;;13.53;;
4268;SDS011;2148;48.554;7.834;2023-09-08T08:58:14;14.63;;;13.23;;
4268;SDS011;2148;48.554;7.834;2023-09-08T09:00:40;14.00;;;12.57;;
4268;SDS011;2148;48.554;7.834;2023-09-08T09:03:05;14.70;;;13.27;;
4268;SDS011;2148;48.554;7.834;2023-09-08T09:05:32;14.93;;;13.43;;
4268;SDS011;2148;48.554;7.834;2023-09-08T09:07:58;14.60;;;13.20;;
4268;SDS011;2148;48.554;7.834;2023-09-08T09:10:23;13.10;;;12.00;;
4268;SDS011;2148;48.554;7.834;2023-09-08T09:12:49;14.97;;;13.50;;
4268;SDS011;2148;48.554;7.834;2023-09-08T09:15:14;16.13;;;13.40;;
4268;SDS011;2148;48.554;7.834;2023-09-08T09:17:39;14.60;;;13.40;;
4268;SDS011;2148;48.554;7.834;2023-09-08T09:20:14;15.40;;;13.80;;
4268;SDS011;2148;48.554;7.834;2023-09-08T09:22:45;14.90;;;13.50;;
4268;SDS011;2148;48.554;7.834;2023-09-08T09:25:20;15.30;;;13.83;;
4268;SDS011;2148;48.554;7.834;2023-09-08T09:27:59;13.73;;;12.33;;
4268;SDS011;2148;48.554;7.834;2023-09-08T09:30:26;13.63;;;12.40;;
4268;SDS011;2148;48.554;7.834;2023-09-08T09:32:59;13.30;;;12.20;;
4268;SDS011;2148;48.554;7.834;2023-09-08T09:38:06;12.90;;;11.57;;
4268;SDS011;2148;48.554;7.834;2023-09-08T09:40:33;12.67;;;11.50;;
4268;SDS011;2148;48.554;7.834;2023-09-08T09:42:58;12.00;;;10.90;;
4268;SDS011;2148;48.554;7.834;2023-09-08T09:45:24;12.37;;;11.37;;
4268;SDS011;2148;48.554;7.834;2023-09-08T09:47:50;12.80;;;11.63;;
4268;SDS011;2148;48.554;7.834;2023-09-08T09:50:26;12.83;;;11.53;;
4268;SDS011;2148;48.554;7.834;2023-09-08T09:52:55;10.63;;;9.83;;
4268;SDS011;2148;48.554;7.834;2023-09-08T09:55:22;12.10;;;11.10;;
4268;SDS011;2148;48.554;7.834;2023-09-08T09:57:47;12.53;;;11.47;;
4268;SDS011;2148;48.554;7.834;2023-09-08T10:00:13;12.47;;;11.27;;
4268;SDS011;2148;48.554;7.834;2023-09-08T10:02:39;12.80;;;11.70;;
4268;SDS011;2148;48.554;7.834;2023-09-08T10:05:11;12.73;;;11.10;;
4268;SDS011;2148;48.554;7.834;2023-09-08T10:07:37;11.23;;;10.33;;
4268;SDS011;2148;48.554;7.834;2023-09-08T10:10:04;11.30;;;10.47;;
4268;SDS011;2148;48.554;7.834;2023-09-08T10:12:30;12.47;;;11.47;;
4268;SDS011;2148;48.554;7.834;2023-09-08T10:14:57;12.20;;;11.13;;
4268;SDS011;2148;48.554;7.834;2023-09-08T10:17:23;10.97;;;10.07;;
4268;SDS011;2148;48.554;7.834;2023-09-08T10:19:50;10.53;;;9.60;;
4268;SDS011;2148;48.554;7.834;2023-09-08T10:22:19;12.68;;;11.18;;
4268;SDS011;2148;48.554;7.834;2023-09-08T10:24:46;12.00;;;11.00;;
4268;SDS011;2148;48.554;7.834;2023-09-08T10:27:11;11.43;;;10.43;;
4268;SDS011;2148;48.554;7.834;2023-09-08T10:29:37;11.47;;;10.47;;
4268;SDS011;2148;48.554;7.834;2023-09-08T10:32:04;12.30;;;10.93;;
4268;SDS011;2148;48.554;7.834;2023-09-08T10:34:30;11.57;;;10.57;;
4268;SDS011;2148;48.554;7.834;2023-09-08T10:36:56;12.80;;;11.80;;
4268;SDS011;2148;48.554;7.834;2023-09-08T10:39:29;11.97;;;10.97;;
4268;SDS011;2148;48.554;7.834;2023-09-08T10:44:41;12.10;;;11.17;;
4268;SDS011;2148;48.554;7.834;2023-09-08T10:47:13;12.13;;;11.13;;
4268;SDS011;2148;48.554;7.834;2023-09-08T10:49:39;11.83;;;10.93;;
4268;SDS011;2148;48.554;7.834;2023-09-08T10:52:07;11.83;;;10.80;;
4268;SDS011;2148;48.554;7.834;2023-09-08T10:54:40;10.43;;;9.53;;
4268;SDS011;2148;48.554;7.834;2023-09-08T10:57:12;12.63;;;11.63;;
4268;SDS011;2148;48.554;7.834;2023-09-08T10:59:38;11.10;;;10.20;;
4268;SDS011;2148;48.554;7.834;2023-09-08T11:02:04;10.53;;;9.63;;
4268;SDS011;2148;48.554;7.834;2023-09-08T11:04:29;10.60;;;9.77;;
4268;SDS011;2148;48.554;7.834;2023-09-08T11:06:58;10.57;;;9.67;;
4268;SDS011;2148;48.554;7.834;2023-09-08T11:09:23;10.40;;;9.50;;
4268;SDS011;2148;48.554;7.834;2023-09-08T11:11:48;11.07;;;10.18;;
4268;SDS011;2148;48.554;7.834;2023-09-08T11:14:14;10.23;;;9.40;;
4268;SDS011;2148;48.554;7.834;2023-09-08T11:16:40;10.57;;;9.68;;
4268;SDS011;2148;48.554;7.834;2023-09-08T11:19:05;11.65;;;10.75;;
4268;SDS011;2148;48.554;7.834;2023-09-08T11:21:32;11.90;;;10.77;;
4268;SDS011;2148;48.554;7.834;2023-09-08T11:24:03;10.73;;;9.93;;
4268;SDS011;2148;48.554;7.834;2023-09-08T11:26:32;10.07;;;9.35;;
4268;SDS011;2148;48.554;7.834;2023-09-08T11:28:58;10.10;;;9.10;;
4268;SDS011;2148;48.554;7.834;2023-09-08T11:31:23;10.75;;;9.85;;
4268;SDS011;2148;48.554;7.834;2023-09-08T11:33:48;10.60;;;9.75;;
4268;SDS011;2148;48.554;7.834;2023-09-08T11:36:14;10.20;;;9.38;;
4268;SDS011;2148;48.554;7.834;2023-09-08T11:38:39;9.43;;;8.77;;
4268;SDS011;2148;48.554;7.834;2023-09-08T11:41:06;10.38;;;9.48;;
4268;SDS011;2148;48.554;7.834;2023-09-08T11:43:31;11.38;;;10.25;;
4268;SDS011;2148;48.554;7.834;2023-09-08T11:45:59;9.88;;;9.07;;
4268;SDS011;2148;48.554;7.834;2023-09-08T11:48:24;10.55;;;9.68;;
4268;SDS011;2148;48.554;7.834;2023-09-08T11:50:52;10.82;;;9.95;;
4268;SDS011;2148;48.554;7.834;2023-09-08T11:53:19;10.02;;;9.32;;
4268;SDS011;2148;48.554;7.834;2023-09-08T11:55:45;10.25;;;9.50;;
4268;SDS011;2148;48.554;7.834;2023-09-08T11:58:11;10.82;;;9.90;;
4268;SDS011;2148;48.554;7.834;2023-09-08T12:00:37;10.70;;;9.82;;
4268;SDS011;2148;48.554;7.834;2023-09-08T12:03:13;9.70;;;8.77;;
4268;SDS011;2148;48.554;7.834;2023-09-08T12:05:44;9.32;;;8.60;;
4268;SDS011;2148;48.554;7.834;2023-09-08T12:08:09;9.75;;;8.95;;
4268;SDS011;2148;48.554;7.834;2023-09-08T12:10:38;10.23;;;9.15;;
4268;SDS011;2148;48.554;7.834;2023-09-08T12:13:04;9.63;;;8.93;;
4268;SDS011;2148;48.554;7.834;2023-09-08T12:15:33;9.57;;;8.90;;
4268;SDS011;2148;48.554;7.834;2023-09-08T12:18:06;9.20;;;8.55;;
4268;SDS011;2148;48.554;7.834;2023-09-08T12:20:36;10.88;;;10.00;;
4268;SDS011;2148;48.554;7.834;2023-09-08T12:23:03;10.98;;;10.02;;
4268;SDS011;2148;48.554;7.834;2023-09-08T12:25:30;9.20;;;8.50;;
4268;SDS011;2148;48.554;7.834;2023-09-08T12:27:58;10.02;;;9.13;;
4268;SDS011;2148;48.554;7.834;2023-09-08T12:30:24;10.30;;;9.57;;
4268;SDS011;2148;48.554;7.834;2023-09-08T12:32:55;10.30;;;9.40;;
4268;SDS011;2148;48.554;7.834;2023-09-08T12:35:21;10.85;;;9.73;;
4268;SDS011;2148;48.554;7.834;2023-09-08T12:38:07;10.77;;;9.90;;
4268;SDS011;2148;48.554;7.834;2023-09-08T12:40:34;11.05;;;10.15;;
4268;SDS011;2148;48.554;7.834;2023-09-08T12:43:01;10.27;;;9.48;;
4268;SDS011;2148;48.554;7.834;2023-09-08T12:45:27;11.15;;;10.18;;
4268;SDS011;2148;48.554;7.834;2023-09-08T12:47:53;10.80;;;9.70;;
4268;SDS011;2148;48.554;7.834;2023-09-08T12:50:23;10.98;;;9.65;;
4268;SDS011;2148;48.554;7.834;2023-09-08T12:52:48;11.20;;;10.20;;
4268;SDS011;2148;48.554;7.834;2023-09-08T12:55:13;12.27;;;11.10;;
4268;SDS011;2148;48.554;7.834;2023-09-08T12:57:38;11.63;;;10.45;;
4268;SDS011;2148;48.554;7.834;2023-09-08T13:00:04;13.23;;;10.05;;
4268;SDS011;2148;48.554;7.834;2023-09-08T13:02:30;10.43;;;9.40;;
4268;SDS011;2148;48.554;7.834;2023-09-08T13:04:55;12.30;;;9.60;;
4268;SDS011;2148;48.554;7.834;2023-09-08T13:07:21;9.70;;;9.00;;
4268;SDS011;2148;48.554;7.834;2023-09-08T13:09:46;9.38;;;8.68;;
4268;SDS011;2148;48.554;7.834;2023-09-08T13:12:12;10.73;;;9.40;;
4268;SDS011;2148;48.554;7.834;2023-09-08T13:14:38;10.52;;;9.63;;
4268;SDS011;2148;48.554;7.834;2023-09-08T13:17:04;9.77;;;8.88;;
4268;SDS011;2148;48.554;7.834;2023-09-08T13:19:29;9.85;;;9.00;;
4268;SDS011;2148;48.554;7.834;2023-09-08T13:21:55;9.55;;;8.73;;
4268;SDS011;2148;48.554;7.834;2023-09-08T13:24:21;9.57;;;8.68;;
4268;SDS011;2148;48.554;7.834;2023-09-08T13:26:47;9.52;;;8.45;;
4268;SDS011;2148;48.554;7.834;2023-09-08T13:29:12;8.80;;;8.05;;
4268;SDS011;2148;48.554;7.834;2023-09-08T13:31:37;9.18;;;8.43;;
4268;SDS011;2148;48.554;7.834;2023-09-08T13:34:03;8.95;;;8.20;;
4268;SDS011;2148;48.554;7.834;2023-09-08T13:36:28;8.00;;;7.30;;
4268;SDS011;2148;48.554;7.834;2023-09-08T13:38:53;7.47;;;6.97;;
4268;SDS011;2148;48.554;7.834;2023-09-08T13:41:18;8.05;;;7.45;;
4268;SDS011;2148;48.554;7.834;2023-09-08T13:43:43;7.72;;;6.97;;
4268;SDS011;2148;48.554;7.834;2023-09-08T13:46:09;7.50;;;6.90;;
4268;SDS011;2148;48.554;7.834;2023-09-08T13:48:34;7.78;;;7.05;;
4268;SDS011;2148;48.554;7.834;2023-09-08T13:51:02;7.00;;;6.40;;
4268;SDS011;2148;48.554;7.834;2023-09-08T13:53:28;7.68;;;6.82;;
4268;SDS011;2148;48.554;7.834;2023-09-08T13:55:55;7.70;;;7.00;;
4268;SDS011;2148;48.554;7.834;2023-09-08T13:58:20;7.60;;;6.90;;
4268;SDS011;2148;48.554;7.834;2023-09-08T14:00:46;7.70;;;7.13;;
4268;SDS011;2148;48.554;7.834;2023-09-08T14:03:13;6.93;;;6.32;;
4268;SDS011;2148;48.554;7.834;2023-09-08T14:05:39;12.88;;;11.27;;
4268;SDS011;2148;48.554;7.834;2023-09-08T14:08:04;13.77;;;12.65;;
4268;SDS011;2148;48.554;7.834;2023-09-08T14:10:30;12.85;;;12.05;;
4268;SDS011;2148;48.554;7.834;2023-09-08T14:12:55;11.95;;;10.98;;
4268;SDS011;2148;48.554;7.834;2023-09-08T14:15:20;12.23;;;11.10;;
4268;SDS011;2148;48.554;7.834;2023-09-08T14:17:46;12.15;;;10.88;;
4268;SDS011;2148;48.554;7.834;2023-09-08T14:20:11;12.73;;;11.68;;
4268;SDS011;2148;48.554;7.834;2023-09-08T14:22:36;12.18;;;11.27;;
4268;SDS011;2148;48.554;7.834;2023-09-08T14:25:03;9.88;;;8.90;;
4268;SDS011;2148;48.554;7.834;2023-09-08T14:27:29;9.70;;;8.90;;
4268;SDS011;2148;48.554;7.834;2023-09-08T14:29:55;9.75;;;8.95;;
4268;SDS011;2148;48.554;7.834;2023-09-08T14:32:20;9.50;;;8.85;;
4268;SDS011;2148;48.554;7.834;2023-09-08T14:34:45;9.73;;;9.13;;
4268;SDS011;2148;48.554;7.834;2023-09-08T14:37:10;10.55;;;9.65;;
4268;SDS011;2148;48.554;7.834;2023-09-08T14:39:36;10.40;;;9.63;;
4268;SDS011;2148;48.554;7.834;2023-09-08T14:42:01;9.18;;;8.45;;
4268;SDS011;2148;48.554;7.834;2023-09-08T14:44:26;9.88;;;8.98;;
4268;SDS011;2148;48.554;7.834;2023-09-08T14:46:52;10.00;;;9.13;;
4268;SDS011;2148;48.554;7.834;2023-09-08T14:49:17;10.75;;;9.63;;
4268;SDS011;2148;48.554;7.834;2023-09-08T14:51:42;11.25;;;10.40;;
4268;SDS011;2148;48.554;7.834;2023-09-08T14:54:07;10.40;;;9.60;;